createdAt,value
2023-03-20T00:02:37.838Z,98141.75
2023-03-20T00:05:40.300Z,98141.29
2023-03-20T00:08:45.108Z,98143.08
2023-03-20T00:11:49.212Z,98142.77
2023-03-20T00:14:51.088Z,98140.89
2023-03-20T00:17:53.527Z,98145.67
2023-03-20T00:20:55.140Z,98146.70
2023-03-20T00:23:57.866Z,98148.13
2023-03-20T00:26:59.713Z,98148.60
2023-03-20T00:30:02.128Z,98146.16
2023-03-20T00:33:05.451Z,98149.08
2023-03-20T00:36:09.122Z,98147.02
2023-03-20T00:39:10.931Z,98145.70
2023-03-20T00:42:21.229Z,98146.71
2023-03-20T00:45:23.737Z,98144.13
2023-03-20T00:48:26.063Z,98147.90
2023-03-20T00:51:28.693Z,98146.02
2023-03-20T00:54:31.650Z,98146.17
2023-03-20T00:58:00.118Z,98144.60
2023-03-20T01:01:02.074Z,98142.72
2023-03-20T01:04:12.375Z,98138.95
2023-03-20T01:07:15.814Z,98134.31
2023-03-20T01:10:18.260Z,98132.20
2023-03-20T01:13:24.001Z,98135.58
2023-03-20T01:16:26.634Z,98133.30
2023-03-20T01:19:28.709Z,98134.64
2023-03-20T01:22:30.844Z,98131.59
2023-03-20T01:25:32.775Z,98130.48
2023-03-20T01:28:35.228Z,98130.71
2023-03-20T01:31:36.973Z,98127.89
2023-03-20T01:34:39.122Z,98128.52
2023-03-20T01:37:41.655Z,98130.55
2023-03-20T01:41:03.763Z,98132.69
2023-03-20T01:44:22.961Z,98135.50
2023-03-20T01:47:28.573Z,98134.02
2023-03-20T01:50:34.077Z,98138.80
2023-03-20T01:53:46.603Z,98131.51
2023-03-20T01:57:03.890Z,98134.17
2023-03-20T02:00:10.101Z,98129.94
2023-03-20T02:03:18.932Z,98134.66
2023-03-20T02:07:00.052Z,98135.83
2023-03-20T02:10:28.479Z,98135.45
2023-03-20T02:13:37.712Z,98141.24
2023-03-20T02:16:40.164Z,98142.82
2023-03-20T02:20:49.878Z,98145.02
2023-03-20T02:24:19.238Z,98146.04
2023-03-20T02:27:40.232Z,98147.14
2023-03-20T02:31:03.311Z,98147.52
2023-03-20T02:34:18.739Z,98143.13
2023-03-20T02:37:50.968Z,98149.41
2023-03-20T02:41:21.133Z,98144.30
2023-03-20T02:44:35.944Z,98137.71
2023-03-20T02:47:52.868Z,98143.14
2023-03-20T02:51:06.226Z,98140.06
2023-03-20T02:54:17.525Z,98144.45
2023-03-20T02:57:28.845Z,98137.78
2023-03-20T03:00:37.609Z,98134.48
2023-03-20T03:03:49.463Z,98131.05
2023-03-20T03:06:55.224Z,98132.15
2023-03-20T03:10:07.052Z,98131.59
2023-03-20T03:13:14.949Z,98133.48
2023-03-20T03:16:28.824Z,98138.58
2023-03-20T03:19:33.493Z,98138.66
2023-03-20T03:22:35.734Z,98137.17
2023-03-20T03:25:40.910Z,98137.23
2023-03-20T03:28:50.508Z,98133.23
2023-03-20T03:31:52.535Z,98133.86
2023-03-20T03:34:55.387Z,98134.58
2023-03-20T03:38:00.951Z,98134.58
2023-03-20T03:41:14.448Z,98130.02
2023-03-20T03:44:25.948Z,98126.64
2023-03-20T03:47:44.713Z,98127.58
2023-03-20T03:50:56.932Z,98126.63
2023-03-20T03:54:08.754Z,98126.79
2023-03-20T03:57:13.294Z,98121.22
2023-03-20T04:00:19.736Z,98124.75
2023-03-20T04:03:28.098Z,98125.69
2023-03-20T04:06:30.076Z,98127.89
2023-03-20T04:09:33.025Z,98125.70
2023-03-20T04:12:39.030Z,98124.59
2023-03-20T04:15:44.752Z,98126.57
2023-03-20T04:18:46.595Z,98130.48
2023-03-20T04:21:49.376Z,98133.40
2023-03-20T04:24:52.105Z,98133.71
2023-03-20T04:27:54.977Z,98136.46
2023-03-20T04:31:08.156Z,98139.27
2023-03-20T04:34:24.277Z,98137.33
2023-03-20T04:37:37.682Z,98137.89
2023-03-20T04:40:43.622Z,98135.83
2023-03-20T04:43:45.366Z,98142.11
2023-03-20T04:46:47.164Z,98139.14
2023-03-20T04:49:52.078Z,98145.89
2023-03-20T04:52:54.024Z,98148.71
2023-03-20T04:55:55.948Z,98148.48
2023-03-20T04:58:57.937Z,98147.61
2023-03-20T05:01:59.953Z,98147.93
2023-03-20T05:05:02.793Z,98152.40
2023-03-20T05:08:05.990Z,98154.67
2023-03-20T05:11:11.182Z,98153.42
2023-03-20T05:14:31.240Z,98156.64
2023-03-20T05:18:09.160Z,98160.09
2023-03-20T05:21:25.197Z,98163.55
2023-03-20T05:24:44.763Z,98166.69
2023-03-20T05:28:25.058Z,98166.68
2023-03-20T05:31:42.840Z,98159.79
2023-03-20T05:35:02.136Z,98161.83
2023-03-20T05:38:26.941Z,98167.95
2023-03-20T05:41:45.756Z,98167.95
2023-03-20T05:45:06.993Z,98169.83
2023-03-20T05:48:34.794Z,98166.22
2023-03-20T05:51:51.705Z,98163.48
2023-03-20T05:55:11.522Z,98164.48
2023-03-20T05:58:34.751Z,98164.10
2023-03-20T06:01:43.634Z,98166.77
2023-03-20T06:05:06.401Z,98166.14
2023-03-20T06:08:16.213Z,98169.20
2023-03-20T06:11:18.067Z,98170.68
2023-03-20T06:14:20.126Z,98172.86
2023-03-20T06:17:27.156Z,98177.74
2023-03-20T06:20:33.890Z,98180.88
2023-03-20T06:23:37.245Z,98182.59
2023-03-20T06:26:39.626Z,98184.30
2023-03-20T06:29:44.656Z,98188.39
2023-03-20T06:32:50.516Z,98189.02
2023-03-20T06:35:53.175Z,98195.30
2023-03-20T06:38:56.319Z,98196.80
2023-03-20T06:41:58.798Z,98200.02
2023-03-20T06:45:04.287Z,98205.04
2023-03-20T06:48:24.341Z,98207.17
2023-03-20T06:51:26.567Z,98213.30
2023-03-20T06:54:28.554Z,98214.08
2023-03-20T06:57:30.693Z,98216.20
2023-03-20T07:00:51.453Z,98215.90
2023-03-20T07:03:58.128Z,98215.34
2023-03-20T07:07:24.712Z,98217.06
2023-03-20T07:10:43.799Z,98222.34
2023-03-20T07:13:49.747Z,98223.20
2023-03-20T07:17:14.924Z,98224.46
2023-03-20T07:20:19.333Z,98224.77
2023-03-20T07:23:21.337Z,98226.48
2023-03-20T07:26:23.434Z,98229.25
2023-03-20T07:29:25.404Z,98229.95
2023-03-20T07:35:59.017Z,98228.05
2023-03-20T07:39:46.988Z,98231.59
2023-03-20T07:43:24.445Z,98235.88
2023-03-20T07:47:10.045Z,98238.93
2023-03-20T07:55:35.843Z,98239.39
2023-03-20T07:59:01.668Z,98243.38
2023-03-20T08:02:05.365Z,98244.41
2023-03-20T08:05:09.621Z,98248.73
2023-03-20T08:08:16.622Z,98251.88
2023-03-20T08:32:07.357Z,98247.98
2023-03-20T08:35:29.747Z,98252.23
2023-03-20T08:48:17.198Z,98252.70
2023-03-20T09:16:14.835Z,98257.55
2023-03-20T09:24:50.941Z,98260.38
2023-03-20T09:28:12.063Z,98259.51
2023-03-20T09:35:33.628Z,98255.50
2023-03-20T09:38:36.840Z,98258.17
2023-03-20T09:41:53.144Z,98258.17
2023-03-20T09:45:36.619Z,98256.38
2023-03-20T09:48:48.779Z,98254.25
2023-03-20T09:51:56.537Z,98254.32
2023-03-20T09:55:08.061Z,98252.36
2023-03-20T09:58:25.782Z,98251.11
2023-03-20T10:01:47.278Z,98256.20
2023-03-20T10:04:54.891Z,98254.70
2023-03-20T10:08:03.371Z,98257.59
2023-03-20T10:11:40.500Z,98256.48
2023-03-20T10:15:02.130Z,98258.05
2023-03-20T10:18:17.880Z,98257.83
2023-03-20T10:21:32.743Z,98253.48
2023-03-20T10:24:35.912Z,98255.61
2023-03-20T10:27:44.227Z,98255.52
2023-03-20T10:31:18.141Z,98255.75
2023-03-20T10:34:45.575Z,98251.86
2023-03-20T10:38:02.515Z,98251.61
2023-03-20T10:41:13.951Z,98254.10
2023-03-20T10:44:27.800Z,98255.90
2023-03-20T10:47:35.643Z,98253.53
2023-03-20T10:50:47.521Z,98251.70
2023-03-20T10:54:02.363Z,98250.35
2023-03-20T10:57:06.945Z,98247.27
2023-03-20T11:00:20.088Z,98247.23
2023-03-20T11:03:30.621Z,98242.33
2023-03-20T11:06:42.323Z,98239.30
2023-03-20T11:09:45.748Z,98239.58
2023-03-20T11:13:25.227Z,98237.50
2023-03-20T11:16:34.547Z,98240.14
2023-03-20T11:19:50.726Z,98239.81
2023-03-20T11:23:04.816Z,98234.46
2023-03-20T11:26:18.250Z,98232.55
2023-03-20T11:29:46.403Z,98229.46
2023-03-20T11:32:56.745Z,98228.04
2023-03-20T11:36:29.645Z,98225.62
2023-03-20T11:39:34.031Z,98227.77
2023-03-20T11:42:37.420Z,98226.33
2023-03-20T11:45:45.485Z,98225.56
2023-03-20T11:49:20.929Z,98218.34
2023-03-20T11:52:32.777Z,98218.91
2023-03-20T11:55:36.234Z,98215.78
2023-03-20T11:59:04.968Z,98214.75
2023-03-20T12:02:22.667Z,98210.05
2023-03-20T12:05:39.977Z,98209.66
2023-03-20T12:08:47.683Z,98210.20
2023-03-20T12:11:58.959Z,98205.47
2023-03-20T12:15:21.745Z,98204.65
2023-03-20T12:18:31.884Z,98201.88
2023-03-20T12:22:04.605Z,98199.33
2023-03-20T12:25:19.153Z,98200.66
2023-03-20T12:28:47.052Z,98196.23
2023-03-20T12:32:18.311Z,98194.56
2023-03-20T12:35:29.902Z,98192.11
2023-03-20T12:38:37.113Z,98193.42
2023-03-20T12:41:59.006Z,98191.44
2023-03-20T12:45:35.648Z,98188.05
2023-03-20T12:49:08.647Z,98191.42
2023-03-20T12:52:26.314Z,98192.36
2023-03-20T12:55:56.320Z,98192.30
2023-03-20T12:59:12.504Z,98189.04
2023-03-20T13:02:43.552Z,98190.63
2023-03-20T13:05:58.338Z,98187.73
2023-03-20T13:09:18.485Z,98190.98
2023-03-20T13:12:37.376Z,98190.81
2023-03-20T13:16:22.382Z,98185.93
2023-03-20T13:19:35.120Z,98184.02
2023-03-20T13:22:54.935Z,98182.98
2023-03-20T13:26:17.536Z,98182.59
2023-03-20T13:29:49.816Z,98176.61
2023-03-20T13:33:24.362Z,98173.90
2023-03-20T13:36:56.483Z,98166.80
2023-03-20T13:44:01.508Z,98167.02
2023-03-20T13:47:19.697Z,98172.13
2023-03-20T13:50:50.580Z,98166.95
2023-03-20T13:54:12.092Z,98167.19
2023-03-20T13:57:36.670Z,98169.38
2023-03-20T14:01:00.253Z,98163.10
2023-03-20T14:04:03.984Z,98169.35
2023-03-20T14:07:38.900Z,98165.52
2023-03-20T14:10:43.956Z,98163.88
2023-03-20T14:13:56.630Z,98165.30
2023-03-20T14:17:09.721Z,98168.45
2023-03-20T14:20:27.713Z,98160.73
2023-03-20T14:23:56.471Z,98161.23
2023-03-20T14:27:01.553Z,98155.88
2023-03-20T14:30:51.211Z,98154.53
2023-03-20T14:34:08.987Z,98152.55
2023-03-20T14:41:30.453Z,98148.66
2023-03-20T14:44:48.086Z,98151.33
2023-03-20T14:48:27.737Z,98145.65
2023-03-20T14:51:44.283Z,98147.67
2023-03-20T14:54:54.303Z,98145.92
2023-03-20T14:58:02.320Z,98140.14
2023-03-20T15:01:08.783Z,98134.15
2023-03-20T15:04:38.642Z,98132.94
2023-03-20T15:07:42.574Z,98130.16
2023-03-20T15:10:57.340Z,98132.43
2023-03-20T15:14:04.412Z,98129.83
2023-03-20T15:17:17.898Z,98131.69
2023-03-20T15:20:26.419Z,98130.74
2023-03-20T15:23:29.656Z,98129.78
2023-03-20T15:26:35.327Z,98126.92
2023-03-20T15:29:43.225Z,98120.31
2023-03-20T15:32:52.951Z,98118.52
2023-03-20T15:35:56.747Z,98117.34
2023-03-20T15:39:27.499Z,98121.90
2023-03-20T15:42:30.770Z,98118.27
2023-03-20T15:45:38.178Z,98121.36
2023-03-20T15:48:46.970Z,98123.48
2023-03-20T15:51:52.310Z,98127.88
2023-03-20T15:54:58.504Z,98131.17
2023-03-20T15:58:02.880Z,98129.75
2023-03-20T16:01:08.132Z,98130.08
2023-03-20T16:04:18.851Z,98130.87
2023-03-20T16:07:27.642Z,98129.75
2023-03-20T16:10:36.567Z,98131.80
2023-03-20T16:13:44.011Z,98137.16
2023-03-20T16:16:49.474Z,98136.95
2023-03-20T16:19:53.138Z,98140.27
2023-03-20T16:23:02.509Z,98139.20
2023-03-20T16:26:08.603Z,98140.56
2023-03-20T16:29:15.085Z,98141.15
2023-03-20T16:32:26.975Z,98139.30
2023-03-20T16:35:37.300Z,98138.64
2023-03-20T16:38:40.815Z,98143.78
2023-03-20T16:41:45.663Z,98142.25
2023-03-20T16:44:55.025Z,98142.13
2023-03-20T16:48:10.124Z,98144.59
2023-03-20T16:51:32.326Z,98146.36
2023-03-20T16:54:37.555Z,98146.67
2023-03-20T16:57:42.213Z,98152.02
2023-03-20T17:00:57.272Z,98155.99
2023-03-20T17:04:22.302Z,98154.63
2023-03-20T17:07:28.209Z,98152.17
2023-03-20T17:10:31.394Z,98155.44
2023-03-20T17:13:34.643Z,98156.66
2023-03-20T17:16:40.221Z,98158.35
2023-03-20T17:19:43.712Z,98166.30
2023-03-20T17:22:47.366Z,98172.06
2023-03-20T17:25:51.097Z,98176.70
2023-03-20T17:28:54.887Z,98173.33
2023-03-20T17:31:58.108Z,98169.73
2023-03-20T17:35:01.345Z,98174.05
2023-03-20T17:38:04.471Z,98175.06
2023-03-20T17:41:14.795Z,98182.15
2023-03-20T17:44:17.971Z,98183.95
2023-03-20T17:47:23.429Z,98182.94
2023-03-20T17:50:27.557Z,98181.90
2023-03-20T17:53:31.458Z,98182.06
2023-03-20T17:56:34.712Z,98175.69
2023-03-20T17:59:37.836Z,98178.05
2023-03-20T18:02:41.012Z,98178.29
2023-03-20T18:05:46.086Z,98183.80
2023-03-20T18:08:49.166Z,98177.98
2023-03-20T18:11:52.166Z,98175.54
2023-03-20T18:14:55.474Z,98172.86
2023-03-20T18:17:58.898Z,98172.23
2023-03-20T18:21:03.015Z,98175.30
2023-03-20T18:24:06.449Z,98178.52
2023-03-20T18:27:11.000Z,98176.48
2023-03-20T18:30:20.256Z,98182.70
2023-03-20T18:33:27.586Z,98187.33
2023-03-20T18:36:30.720Z,98184.27
2023-03-20T18:39:33.789Z,98188.84
2023-03-20T18:42:36.946Z,98189.09
2023-03-20T18:45:40.103Z,98191.91
2023-03-20T18:48:43.730Z,98186.34
2023-03-20T18:51:46.979Z,98185.16
2023-03-20T18:54:51.975Z,98179.27
2023-03-20T18:57:56.569Z,98179.75
2023-03-20T19:01:00.457Z,98181.80
2023-03-20T19:04:03.734Z,98182.83
2023-03-20T19:07:07.833Z,98174.02
2023-03-20T19:10:24.801Z,98169.31
2023-03-20T19:13:27.917Z,98173.09
2023-03-20T19:16:35.154Z,98178.75
2023-03-20T19:19:38.336Z,98184.80
2023-03-20T19:22:41.723Z,98189.44
2023-03-20T19:25:47.112Z,98191.63
2023-03-20T19:28:50.947Z,98189.83
2023-03-20T19:31:54.182Z,98190.62
2023-03-20T19:38:21.673Z,98189.52
2023-03-20T19:41:25.506Z,98189.06
2023-03-20T19:44:28.640Z,98192.68
2023-03-20T19:47:31.903Z,98195.28
2023-03-20T19:50:41.364Z,98192.14
2023-03-20T19:53:46.330Z,98188.13
2023-03-20T19:56:49.521Z,98188.20
2023-03-20T19:59:52.968Z,98185.61
2023-03-20T20:02:56.520Z,98192.92
2023-03-20T20:06:03.777Z,98202.52
2023-03-20T20:09:06.957Z,98200.06
2023-03-20T20:12:10.202Z,98193.86
2023-03-20T20:15:14.210Z,98195.67
2023-03-20T20:18:18.787Z,98199.52
2023-03-20T20:22:13.304Z,98194.57
2023-03-20T20:24:45.091Z,98194.80
2023-03-20T20:27:48.792Z,98195.51
2023-03-20T20:30:55.784Z,98191.20
2023-03-20T20:34:25.231Z,98190.18
2023-03-20T20:38:21.212Z,98186.78
2023-03-20T20:40:45.293Z,98185.92
2023-03-20T20:44:14.658Z,98183.11
2023-03-20T20:47:11.994Z,98187.12
2023-03-20T20:50:18.829Z,98188.85
2023-03-20T20:53:21.944Z,98187.75
2023-03-20T20:56:25.042Z,98185.23
2023-03-20T20:59:28.455Z,98187.06
2023-03-20T21:02:32.884Z,98185.73
2023-03-20T21:05:37.849Z,98184.46
2023-03-20T21:08:43.906Z,98182.66
2023-03-20T21:11:49.794Z,98184.79
2023-03-20T21:14:53.732Z,98187.06
2023-03-20T21:18:01.447Z,98191.55
2023-03-20T21:21:11.047Z,98188.55
2023-03-20T21:24:31.171Z,98187.54
2023-03-20T21:27:36.720Z,98184.63
2023-03-20T21:31:00.021Z,98186.59
2023-03-20T21:34:06.161Z,98187.23
2023-03-20T21:38:15.803Z,98189.19
2023-03-20T21:40:32.912Z,98187.21
2023-03-20T21:43:36.292Z,98183.92
2023-03-20T21:47:09.694Z,98182.51
2023-03-20T22:01:10.950Z,98180.71
2023-03-20T22:04:37.647Z,98181.89
2023-03-20T22:07:52.209Z,98181.34
2023-03-20T22:17:56.121Z,98177.89
2023-03-20T22:34:53.757Z,98174.45
2023-03-20T22:44:58.496Z,98180.17
2023-03-20T22:47:42.312Z,98175.55
2023-03-20T22:50:50.943Z,98179.95
2023-03-20T22:53:54.070Z,98186.00
2023-03-20T22:56:57.185Z,98183.32
2023-03-20T23:00:00.325Z,98183.95
2023-03-20T23:03:37.762Z,98185.27
2023-03-20T23:06:28.627Z,98185.91
2023-03-20T23:09:31.745Z,98186.06
2023-03-20T23:12:34.780Z,98181.27
2023-03-20T23:15:37.971Z,98178.05
2023-03-20T23:18:41.296Z,98180.41
2023-03-20T23:21:44.376Z,98177.52
2023-03-20T23:24:47.417Z,98173.02
2023-03-20T23:27:50.852Z,98169.19
2023-03-20T23:31:07.615Z,98172.79
2023-03-20T23:34:13.537Z,98173.98
2023-03-20T23:37:16.661Z,98174.85
2023-03-20T23:40:19.897Z,98174.45
2023-03-20T23:43:23.063Z,98174.91
2023-03-20T23:46:26.222Z,98172.17
2023-03-20T23:49:29.470Z,98175.95
2023-03-20T23:52:35.155Z,98173.90
2023-03-20T23:55:40.397Z,98177.98
2023-03-20T23:58:54.843Z,98174.05
